createdAt,value
2023-05-10T00:01:10.224Z,33.60
2023-05-10T00:03:37.419Z,33.57
2023-05-10T00:06:04.645Z,33.53
2023-05-10T00:08:31.819Z,33.51
2023-05-10T00:10:58.970Z,33.59
2023-05-10T00:13:26.332Z,33.59
2023-05-10T00:15:53.540Z,33.62
2023-05-10T00:18:20.726Z,33.59
2023-05-10T00:20:48.039Z,33.78
2023-05-10T00:23:15.164Z,33.59
2023-05-10T00:25:42.236Z,33.74
2023-05-10T00:28:09.356Z,33.66
2023-05-10T00:30:38.274Z,33.80
2023-05-10T00:33:05.409Z,33.61
2023-05-10T00:35:32.554Z,33.86
2023-05-10T00:37:59.738Z,33.90
2023-05-10T00:40:26.985Z,33.83
2023-05-10T00:42:58.280Z,33.96
2023-05-10T00:45:25.973Z,33.77
2023-05-10T00:47:56.253Z,33.91
2023-05-10T00:50:24.657Z,33.89
2023-05-10T00:52:51.796Z,33.84
2023-05-10T00:55:19.602Z,33.94
2023-05-10T00:57:46.793Z,33.96
2023-05-10T01:00:19.085Z,33.86
2023-05-10T01:02:47.506Z,33.93
2023-05-10T01:05:15.041Z,33.85
2023-05-10T01:07:42.308Z,33.96
2023-05-10T01:10:11.593Z,33.98
2023-05-10T01:12:41.950Z,34.02
2023-05-10T01:15:10.210Z,33.97
2023-05-10T01:17:40.714Z,34.00
2023-05-10T01:20:10.440Z,34.00
2023-05-10T01:23:16.017Z,34.05
2023-05-10T01:26:22.266Z,34.28
2023-05-10T01:29:07.766Z,34.14
2023-05-10T01:32:01.169Z,34.20
2023-05-10T01:34:43.725Z,34.22
2023-05-10T01:37:19.564Z,34.26
2023-05-10T01:40:19.752Z,34.22
2023-05-10T01:42:52.929Z,34.18
2023-05-10T01:45:30.151Z,34.28
2023-05-10T01:48:08.486Z,34.36
2023-05-10T01:50:37.823Z,34.37
2023-05-10T01:53:09.487Z,34.47
2023-05-10T01:55:44.228Z,34.52
2023-05-10T01:58:16.125Z,34.34
2023-05-10T02:00:48.518Z,34.36
2023-05-10T02:03:17.252Z,34.49
2023-05-10T02:05:46.619Z,34.55
2023-05-10T02:08:15.777Z,34.38
2023-05-10T02:10:46.059Z,34.51
2023-05-10T02:13:15.279Z,34.62
2023-05-10T02:15:44.036Z,34.49
2023-05-10T02:18:13.823Z,34.61
2023-05-10T02:20:41.490Z,34.68
2023-05-10T02:23:10.146Z,34.61
2023-05-10T02:25:39.923Z,34.72
2023-05-10T02:28:08.487Z,34.64
2023-05-10T02:30:37.821Z,34.65
2023-05-10T02:33:06.621Z,34.73
2023-05-10T02:35:35.061Z,34.69
2023-05-10T02:38:03.296Z,34.70
2023-05-10T02:40:32.029Z,34.68
2023-05-10T02:43:00.500Z,34.64
2023-05-10T02:45:32.243Z,34.69
2023-05-10T02:48:00.642Z,34.65
2023-05-10T02:50:30.133Z,34.79
2023-05-10T02:53:03.181Z,34.76
2023-05-10T02:55:37.982Z,34.83
2023-05-10T02:58:05.398Z,34.81
2023-05-10T03:00:32.691Z,34.71
2023-05-10T03:02:59.954Z,34.69
2023-05-10T03:05:27.634Z,34.64
2023-05-10T03:07:55.484Z,34.80
2023-05-10T03:10:29.155Z,34.66
2023-05-10T03:13:03.035Z,34.94
2023-05-10T03:15:39.125Z,34.85
2023-05-10T03:18:12.137Z,34.82
2023-05-10T03:20:44.629Z,34.89
2023-05-10T03:23:23.759Z,34.95
2023-05-10T03:25:52.018Z,35.02
2023-05-10T03:28:19.898Z,34.99
2023-05-10T03:30:48.241Z,35.02
2023-05-10T03:33:15.556Z,35.13
2023-05-10T03:35:46.884Z,34.87
2023-05-10T03:38:14.403Z,35.02
2023-05-10T03:40:41.789Z,35.11
2023-05-10T03:43:09.213Z,35.20
2023-05-10T03:45:36.623Z,35.16
2023-05-10T03:48:04.203Z,35.17
2023-05-10T03:50:31.283Z,35.25
2023-05-10T03:52:58.706Z,35.30
2023-05-10T03:55:25.817Z,35.42
2023-05-10T03:57:54.882Z,35.25
2023-05-10T04:00:22.501Z,35.30
2023-05-10T04:02:50.739Z,35.21
2023-05-10T04:05:20.225Z,35.15
2023-05-10T04:07:48.267Z,35.27
2023-05-10T04:10:15.793Z,35.35
2023-05-10T04:12:43.295Z,35.23
2023-05-10T04:15:10.772Z,35.31
2023-05-10T04:17:38.701Z,35.22
2023-05-10T04:20:06.673Z,35.58
2023-05-10T04:22:33.848Z,35.43
2023-05-10T04:25:00.843Z,35.39
2023-05-10T04:27:28.204Z,35.42
2023-05-10T04:29:55.421Z,35.29
2023-05-10T04:32:22.593Z,35.29
2023-05-10T04:34:50.119Z,35.49
2023-05-10T04:37:17.162Z,35.46
2023-05-10T04:39:44.415Z,35.49
2023-05-10T04:42:12.466Z,35.49
2023-05-10T04:44:39.693Z,35.57
2023-05-10T04:47:06.838Z,35.48
2023-05-10T04:49:33.927Z,35.69
2023-05-10T04:52:01.003Z,35.47
2023-05-10T04:54:28.124Z,35.49
2023-05-10T04:56:55.295Z,35.71
2023-05-10T04:59:22.386Z,35.55
2023-05-10T05:01:49.558Z,35.70
2023-05-10T05:04:16.888Z,35.63
2023-05-10T05:06:44.223Z,35.68
2023-05-10T05:09:11.301Z,35.68
2023-05-10T05:11:38.315Z,35.74
2023-05-10T05:14:05.352Z,35.91
2023-05-10T05:16:33.221Z,35.66
2023-05-10T05:19:00.964Z,35.73
2023-05-10T05:21:28.192Z,35.80
2023-05-10T05:23:55.423Z,35.84
2023-05-10T05:26:22.496Z,35.85
2023-05-10T05:28:51.053Z,35.85
2023-05-10T05:31:18.890Z,35.71
2023-05-10T05:33:46.119Z,35.86
2023-05-10T05:36:13.348Z,35.86
2023-05-10T05:38:40.417Z,35.80
2023-05-10T05:41:07.674Z,35.96
2023-05-10T05:43:36.730Z,35.97
2023-05-10T05:46:05.359Z,35.82
2023-05-10T05:48:32.719Z,35.93
2023-05-10T05:51:00.275Z,35.91
2023-05-10T05:53:27.566Z,35.79
2023-05-10T05:55:56.311Z,36.08
2023-05-10T05:58:23.882Z,35.94
2023-05-10T06:00:51.610Z,35.97
2023-05-10T06:03:19.769Z,36.12
2023-05-10T06:05:47.488Z,35.87
2023-05-10T06:08:14.620Z,35.84
2023-05-10T06:10:41.729Z,35.90
2023-05-10T06:13:08.922Z,35.86
2023-05-10T06:15:36.042Z,35.90
2023-05-10T06:18:03.326Z,36.01
2023-05-10T06:20:32.537Z,35.76
2023-05-10T06:23:00.058Z,35.68
2023-05-10T06:25:27.250Z,35.77
2023-05-10T06:27:58.344Z,35.82
2023-05-10T06:30:28.543Z,35.96
2023-05-10T06:32:56.529Z,35.93
2023-05-10T06:35:23.820Z,35.84
2023-05-10T06:37:51.914Z,35.79
2023-05-10T06:40:19.706Z,35.69
2023-05-10T06:42:47.762Z,35.70
2023-05-10T06:45:16.201Z,35.67
2023-05-10T06:47:43.951Z,35.85
2023-05-10T06:50:12.606Z,35.66
2023-05-10T06:52:40.221Z,35.77
2023-05-10T06:55:07.918Z,35.67
2023-05-10T06:57:35.128Z,35.86
2023-05-10T07:00:05.209Z,35.79
2023-05-10T07:02:32.584Z,35.64
2023-05-10T07:05:02.502Z,35.74
2023-05-10T07:07:30.859Z,35.74
2023-05-10T07:09:58.769Z,35.70
2023-05-10T07:12:26.512Z,35.49
2023-05-10T07:14:53.796Z,35.61
2023-05-10T07:17:21.171Z,35.78
2023-05-10T07:19:48.369Z,35.61
2023-05-10T07:22:17.734Z,35.59
2023-05-10T07:24:44.926Z,35.37
2023-05-10T07:27:12.080Z,35.47
2023-05-10T07:29:39.082Z,35.60
2023-05-10T07:32:07.426Z,35.47
2023-05-10T07:34:34.526Z,35.52
2023-05-10T07:37:01.728Z,35.60
2023-05-10T07:39:28.920Z,35.19
2023-05-10T07:41:56.866Z,35.30
2023-05-10T07:44:24.592Z,35.25
2023-05-10T07:46:51.899Z,35.11
2023-05-10T07:49:19.107Z,35.28
2023-05-10T07:51:46.355Z,35.16
2023-05-10T07:54:13.823Z,35.08
2023-05-10T07:56:45.822Z,34.86
2023-05-10T07:59:16.710Z,34.94
2023-05-10T08:01:44.386Z,35.01
2023-05-10T08:04:12.613Z,34.97
2023-05-10T08:06:40.738Z,34.83
2023-05-10T08:09:07.960Z,34.95
2023-05-10T08:11:35.362Z,34.75
2023-05-10T08:14:02.599Z,34.74
2023-05-10T08:16:30.104Z,34.88
2023-05-10T08:18:57.489Z,34.88
2023-05-10T08:21:24.743Z,34.54
2023-05-10T08:23:51.881Z,34.52
2023-05-10T08:26:18.995Z,34.61
2023-05-10T08:28:46.057Z,34.44
2023-05-10T08:31:13.490Z,34.50
2023-05-10T08:33:42.164Z,34.41
2023-05-10T08:36:10.132Z,34.39
2023-05-10T08:38:38.949Z,34.30
2023-05-10T08:41:07.232Z,34.38
2023-05-10T08:43:37.157Z,34.35
2023-05-10T08:46:08.837Z,34.34
2023-05-10T08:48:36.627Z,34.27
2023-05-10T08:51:05.368Z,34.26
2023-05-10T08:53:36.501Z,34.18
2023-05-10T08:56:03.779Z,34.19
2023-05-10T08:58:31.954Z,33.98
2023-05-10T09:01:00.443Z,34.14
2023-05-10T09:03:27.676Z,33.94
2023-05-10T09:05:56.875Z,34.03
2023-05-10T09:08:27.998Z,33.99
2023-05-10T09:10:58.413Z,33.73
2023-05-10T09:13:25.849Z,33.72
2023-05-10T09:15:54.128Z,33.63
2023-05-10T09:18:21.374Z,33.48
2023-05-10T09:20:49.935Z,33.76
2023-05-10T09:23:17.102Z,33.67
2023-05-10T09:25:44.286Z,33.55
2023-05-10T09:28:12.286Z,33.70
2023-05-10T09:30:39.856Z,33.34
2023-05-10T09:33:07.092Z,33.44
2023-05-10T09:35:34.786Z,33.47
2023-05-10T09:38:05.971Z,33.31
2023-05-10T09:40:33.848Z,33.47
2023-05-10T09:43:07.927Z,33.43
2023-05-10T09:45:38.531Z,33.28
2023-05-10T09:48:07.154Z,33.42
2023-05-10T09:50:35.292Z,33.23
2023-05-10T09:53:04.924Z,33.48
2023-05-10T09:55:45.987Z,33.18
2023-05-10T09:58:14.609Z,33.19
2023-05-10T10:00:46.177Z,33.06
2023-05-10T10:03:15.919Z,33.10
2023-05-10T10:05:44.697Z,32.86
2023-05-10T10:08:13.402Z,32.95
2023-05-10T10:10:41.773Z,32.88
2023-05-10T10:13:09.521Z,33.03
2023-05-10T10:15:37.140Z,33.07
2023-05-10T10:18:06.243Z,32.80
2023-05-10T10:20:33.389Z,32.75
2023-05-10T10:23:00.590Z,32.75
2023-05-10T10:25:27.805Z,32.70
2023-05-10T10:27:55.126Z,32.87
2023-05-10T10:31:02.611Z,32.86
2023-05-10T10:33:55.549Z,32.76
2023-05-10T10:36:22.805Z,32.71
2023-05-10T10:38:49.916Z,32.52
2023-05-10T10:41:37.093Z,32.59
2023-05-10T10:44:30.459Z,32.35
2023-05-10T10:47:13.243Z,32.25
2023-05-10T10:50:04.864Z,32.32
2023-05-10T10:52:39.526Z,32.48
2023-05-10T10:55:07.784Z,32.42
2023-05-10T10:58:02.087Z,32.46
2023-05-10T11:00:33.165Z,32.29
2023-05-10T11:03:03.735Z,32.34
2023-05-10T11:05:34.005Z,32.26
2023-05-10T11:08:07.422Z,31.99
2023-05-10T11:10:34.740Z,32.26
2023-05-10T11:13:06.879Z,32.37
2023-05-10T11:15:36.677Z,32.10
2023-05-10T11:18:22.718Z,32.01
2023-05-10T11:20:54.065Z,31.83
2023-05-10T11:23:22.147Z,31.97
2023-05-10T11:25:51.132Z,32.04
2023-05-10T11:28:20.445Z,32.13
2023-05-10T11:30:48.260Z,32.00
2023-05-10T11:33:20.541Z,31.79
2023-05-10T11:35:48.041Z,31.98
2023-05-10T11:38:15.320Z,31.77
2023-05-10T11:40:42.975Z,31.85
2023-05-10T11:43:11.751Z,31.81
2023-05-10T11:45:39.347Z,31.54
2023-05-10T11:48:06.522Z,31.56
2023-05-10T11:50:33.897Z,31.46
2023-05-10T11:53:01.413Z,31.45
2023-05-10T11:55:28.525Z,31.53
2023-05-10T11:57:56.025Z,31.67
2023-05-10T12:00:23.200Z,31.54
2023-05-10T12:02:51.147Z,31.64
2023-05-10T12:05:18.832Z,31.43
2023-05-10T12:07:46.021Z,31.27
2023-05-10T12:10:19.344Z,31.31
2023-05-10T12:12:50.737Z,31.27
2023-05-10T12:15:22.947Z,31.18
2023-05-10T12:17:51.609Z,31.23
2023-05-10T12:20:21.153Z,31.22
2023-05-10T12:22:51.217Z,31.14
2023-05-10T12:25:19.401Z,31.13
2023-05-10T12:27:50.712Z,31.09
2023-05-10T12:30:22.398Z,31.03
2023-05-10T12:32:49.462Z,30.88
2023-05-10T12:35:17.520Z,30.70
2023-05-10T12:37:44.761Z,30.89
2023-05-10T12:40:12.998Z,30.76
2023-05-10T12:42:41.174Z,30.82
2023-05-10T12:45:10.005Z,30.93
2023-05-10T12:47:37.436Z,30.77
2023-05-10T12:50:05.725Z,30.85
2023-05-10T12:52:33.620Z,30.70
2023-05-10T12:55:01.246Z,30.72
2023-05-10T12:57:28.927Z,30.79
2023-05-10T12:59:56.794Z,30.86
2023-05-10T13:02:24.329Z,30.84
2023-05-10T13:04:51.906Z,30.75
2023-05-10T13:07:19.165Z,30.68
2023-05-10T13:09:46.497Z,30.50
2023-05-10T13:12:14.057Z,30.63
2023-05-10T13:14:41.808Z,30.41
2023-05-10T13:17:09.181Z,30.52
2023-05-10T13:19:36.449Z,30.38
2023-05-10T13:22:04.144Z,30.40
2023-05-10T13:24:31.409Z,30.36
2023-05-10T13:26:59.543Z,30.40
2023-05-10T13:29:27.105Z,30.29
2023-05-10T13:31:54.461Z,30.41
2023-05-10T13:34:25.320Z,30.28
2023-05-10T13:36:54.169Z,30.42
2023-05-10T13:39:21.802Z,30.29
2023-05-10T13:41:49.207Z,30.18
2023-05-10T13:44:16.617Z,30.15
2023-05-10T13:46:44.626Z,30.11
2023-05-10T13:49:11.976Z,30.19
2023-05-10T13:51:39.421Z,30.14
2023-05-10T13:54:06.887Z,30.13
2023-05-10T13:56:34.570Z,30.29
2023-05-10T13:59:02.057Z,30.04
2023-05-10T14:01:29.271Z,30.19
2023-05-10T14:03:56.571Z,30.09
2023-05-10T14:06:23.791Z,30.01
2023-05-10T14:08:50.971Z,30.09
2023-05-10T14:11:18.611Z,29.96
2023-05-10T14:13:45.755Z,29.82
2023-05-10T14:16:13.166Z,29.84
2023-05-10T14:18:41.003Z,29.83
2023-05-10T14:21:08.184Z,29.80
2023-05-10T14:23:35.384Z,29.72
2023-05-10T14:26:02.905Z,29.76
2023-05-10T14:28:30.518Z,29.77
2023-05-10T14:30:57.805Z,29.75
2023-05-10T14:33:25.158Z,29.87
2023-05-10T14:35:52.335Z,29.92
2023-05-10T14:38:19.548Z,29.70
2023-05-10T14:40:46.757Z,29.82
2023-05-10T14:43:13.882Z,29.83
2023-05-10T14:45:41.480Z,29.59
2023-05-10T14:48:12.311Z,29.62
2023-05-10T14:50:40.626Z,29.62
2023-05-10T14:53:08.116Z,29.43
2023-05-10T14:55:36.303Z,29.55
2023-05-10T14:58:04.181Z,29.62
2023-05-10T15:00:32.279Z,29.67
2023-05-10T15:03:00.188Z,29.52
2023-05-10T15:05:27.760Z,29.52
2023-05-10T15:07:55.810Z,29.51
2023-05-10T15:10:23.563Z,29.47
2023-05-10T15:12:51.480Z,29.44
2023-05-10T15:15:19.021Z,29.44
2023-05-10T15:17:47.070Z,29.42
2023-05-10T15:20:14.609Z,29.42
2023-05-10T15:22:42.212Z,29.49
2023-05-10T15:25:09.554Z,29.53
2023-05-10T15:27:36.779Z,29.46
2023-05-10T15:30:04.325Z,29.50
2023-05-10T15:32:31.478Z,29.33
2023-05-10T15:34:59.320Z,29.42
2023-05-10T15:37:27.004Z,29.45
2023-05-10T15:39:55.809Z,29.43
2023-05-10T15:42:24.610Z,29.50
2023-05-10T15:44:52.400Z,29.41
2023-05-10T15:47:19.541Z,29.29
2023-05-10T15:49:47.403Z,29.45
2023-05-10T15:52:18.087Z,29.24
2023-05-10T15:54:45.567Z,29.30
2023-05-10T15:57:12.849Z,29.31
2023-05-10T15:59:41.790Z,29.33
2023-05-10T16:02:12.939Z,29.55
2023-05-10T16:04:40.296Z,29.50
2023-05-10T16:07:07.575Z,29.38
2023-05-10T16:09:34.821Z,29.39
2023-05-10T16:12:03.475Z,29.23
2023-05-10T16:14:30.863Z,29.16
2023-05-10T16:16:58.229Z,29.44
2023-05-10T16:19:27.192Z,29.28
2023-05-10T16:21:57.210Z,29.32
2023-05-10T16:24:26.609Z,29.42
2023-05-10T16:26:53.888Z,29.29
2023-05-10T16:29:21.722Z,29.36
2023-05-10T16:31:48.840Z,29.30
2023-05-10T16:34:24.440Z,29.33
2023-05-10T16:36:51.756Z,29.33
2023-05-10T16:39:19.047Z,29.26
2023-05-10T16:41:46.664Z,29.11
2023-05-10T16:44:14.548Z,29.31
2023-05-10T16:46:42.008Z,29.26
2023-05-10T16:49:10.158Z,29.33
2023-05-10T16:51:38.067Z,29.34
2023-05-10T16:54:05.381Z,29.40
2023-05-10T16:56:33.017Z,29.32
2023-05-10T16:59:00.204Z,29.43
2023-05-10T17:01:27.892Z,29.34
2023-05-10T17:03:55.330Z,29.30
2023-05-10T17:06:22.650Z,29.37
2023-05-10T17:08:49.894Z,29.38
2023-05-10T17:11:17.251Z,29.35
2023-05-10T17:13:44.450Z,29.40
2023-05-10T17:16:12.575Z,29.21
2023-05-10T17:18:42.113Z,29.26
2023-05-10T17:21:10.168Z,29.32
2023-05-10T17:23:37.529Z,29.55
2023-05-10T17:26:06.419Z,29.42
2023-05-10T17:28:36.633Z,29.33
2023-05-10T17:31:04.464Z,29.42
2023-05-10T17:33:32.311Z,29.24
2023-05-10T17:35:59.600Z,29.60
2023-05-10T17:38:26.779Z,29.55
2023-05-10T17:40:55.462Z,29.47
2023-05-10T17:43:23.667Z,29.58
2023-05-10T17:45:51.325Z,29.59
2023-05-10T17:48:18.717Z,29.60
2023-05-10T17:50:45.943Z,29.53
2023-05-10T17:53:13.170Z,29.53
2023-05-10T17:55:41.800Z,29.79
2023-05-10T17:58:19.853Z,29.70
2023-05-10T18:00:47.022Z,29.68
2023-05-10T18:03:16.665Z,29.65
2023-05-10T18:05:45.781Z,29.69
2023-05-10T18:08:15.968Z,29.66
2023-05-10T18:10:43.569Z,29.71
2023-05-10T18:13:10.686Z,29.78
2023-05-10T18:15:38.711Z,29.79
2023-05-10T18:18:06.488Z,29.91
2023-05-10T18:20:34.132Z,29.85
2023-05-10T18:23:01.493Z,29.75
2023-05-10T18:25:28.704Z,29.77
2023-05-10T18:27:56.326Z,29.84
2023-05-10T18:30:23.746Z,29.95
2023-05-10T18:32:51.371Z,30.03
2023-05-10T18:35:18.995Z,29.98
2023-05-10T18:37:46.316Z,29.86
2023-05-10T18:40:14.854Z,29.90
2023-05-10T18:42:42.107Z,29.87
2023-05-10T18:45:09.464Z,29.95
2023-05-10T18:47:39.172Z,30.07
2023-05-10T18:50:08.856Z,29.96
2023-05-10T18:52:37.981Z,29.88
2023-05-10T18:55:06.567Z,29.99
2023-05-10T18:57:40.050Z,30.14
2023-05-10T19:00:12.429Z,29.93
2023-05-10T19:02:40.649Z,30.03
2023-05-10T19:05:08.944Z,30.07
2023-05-10T19:07:37.524Z,30.05
2023-05-10T19:10:06.412Z,30.17
2023-05-10T19:12:34.118Z,30.12
2023-05-10T19:15:01.300Z,30.12
2023-05-10T19:17:31.263Z,30.18
2023-05-10T19:20:00.115Z,30.24
2023-05-10T19:25:01.002Z,30.12
2023-05-10T19:27:28.401Z,30.25
2023-05-10T19:29:56.763Z,30.14
2023-05-10T19:32:25.265Z,30.28
2023-05-10T19:34:52.859Z,30.12
2023-05-10T19:37:20.442Z,30.29
2023-05-10T19:39:47.505Z,30.24
2023-05-10T19:42:14.698Z,30.04
2023-05-10T19:44:41.704Z,30.17
2023-05-10T19:47:09.368Z,30.16
2023-05-10T19:49:36.620Z,30.34
2023-05-10T19:52:07.986Z,30.06
2023-05-10T19:54:35.022Z,30.16
2023-05-10T19:57:02.144Z,30.16
2023-05-10T19:59:29.288Z,30.32
2023-05-10T20:01:56.353Z,30.36
2023-05-10T20:04:23.558Z,30.21
2023-05-10T20:06:50.628Z,30.25
2023-05-10T20:09:17.741Z,30.18
2023-05-10T20:11:44.807Z,30.04
2023-05-10T20:14:11.990Z,30.17
2023-05-10T20:16:39.092Z,30.25
2023-05-10T20:19:06.429Z,30.12
2023-05-10T20:21:33.646Z,30.41
2023-05-10T20:24:00.719Z,30.12
2023-05-10T20:26:27.794Z,30.39
2023-05-10T20:28:54.826Z,30.42
2023-05-10T20:31:22.064Z,30.53
2023-05-10T20:33:49.225Z,30.22
2023-05-10T20:36:16.848Z,30.32
2023-05-10T20:38:43.897Z,30.26
2023-05-10T20:41:11.000Z,30.42
2023-05-10T20:43:38.045Z,30.50
2023-05-10T20:46:05.619Z,30.43
2023-05-10T20:48:33.173Z,30.35
2023-05-10T20:51:02.172Z,30.44
2023-05-10T20:53:30.016Z,30.46
2023-05-10T20:55:57.082Z,30.41
2023-05-10T20:58:24.146Z,30.51
2023-05-10T21:00:51.301Z,30.49
2023-05-10T21:03:18.373Z,30.51
2023-05-10T21:05:45.497Z,30.48
2023-05-10T21:08:12.601Z,30.76
2023-05-10T21:10:39.633Z,30.50
2023-05-10T21:13:06.737Z,30.54
2023-05-10T21:15:33.789Z,30.54
2023-05-10T21:18:00.908Z,30.67
2023-05-10T21:20:28.165Z,30.50
2023-05-10T21:22:55.232Z,30.52
2023-05-10T21:25:23.243Z,30.65
2023-05-10T21:27:50.340Z,30.75
2023-05-10T21:30:18.168Z,30.83
2023-05-10T21:32:45.296Z,30.68
2023-05-10T21:35:12.344Z,30.81
2023-05-10T21:37:39.461Z,30.63
2023-05-10T21:40:06.829Z,30.75
2023-05-10T21:42:33.902Z,30.88
2023-05-10T21:45:01.153Z,30.75
2023-05-10T21:47:28.487Z,30.75
2023-05-10T21:49:55.659Z,30.70
2023-05-10T21:52:22.801Z,30.88
2023-05-10T21:54:50.004Z,31.04
2023-05-10T21:57:16.966Z,30.78
2023-05-10T21:59:44.041Z,31.00
2023-05-10T22:02:11.211Z,31.02
2023-05-10T22:04:38.383Z,30.93
2023-05-10T22:07:05.713Z,30.97
2023-05-10T22:09:32.797Z,31.16
2023-05-10T22:11:59.836Z,30.96
2023-05-10T22:14:27.003Z,31.14
2023-05-10T22:16:54.109Z,30.92
2023-05-10T22:19:21.282Z,31.11
2023-05-10T22:21:48.372Z,30.99
2023-05-10T22:24:15.471Z,30.89
2023-05-10T22:26:42.435Z,31.11
2023-05-10T22:29:09.425Z,31.30
2023-05-10T22:31:36.640Z,31.18
2023-05-10T22:34:04.142Z,31.17
2023-05-10T22:36:31.751Z,31.17
2023-05-10T22:38:58.762Z,31.12
2023-05-10T22:41:25.758Z,31.21
2023-05-10T22:43:52.840Z,31.27
2023-05-10T22:46:19.912Z,31.27
2023-05-10T22:48:47.164Z,31.16
2023-05-10T22:51:14.321Z,31.32
2023-05-10T22:53:41.619Z,31.23
2023-05-10T22:56:08.938Z,31.36
2023-05-10T22:58:36.101Z,31.36
2023-05-10T23:01:03.385Z,31.36
2023-05-10T23:03:30.785Z,31.30
2023-05-10T23:05:58.054Z,31.25
2023-05-10T23:08:25.397Z,31.37
2023-05-10T23:10:52.770Z,31.53
2023-05-10T23:13:21.196Z,31.50
2023-05-10T23:15:48.506Z,31.46
2023-05-10T23:18:15.836Z,31.52
2023-05-10T23:20:43.363Z,31.58
2023-05-10T23:23:11.404Z,31.63
2023-05-10T23:25:38.743Z,31.62
2023-05-10T23:28:05.967Z,31.60
2023-05-10T23:30:33.182Z,31.79
2023-05-10T23:33:00.479Z,31.59
2023-05-10T23:35:27.773Z,31.77
2023-05-10T23:37:55.372Z,31.73
2023-05-10T23:40:22.731Z,31.74
2023-05-10T23:42:49.978Z,31.97
2023-05-10T23:45:17.311Z,31.96
2023-05-10T23:47:44.620Z,31.79
2023-05-10T23:50:11.917Z,31.66
2023-05-10T23:52:39.129Z,31.61
2023-05-10T23:55:07.144Z,31.85
2023-05-10T23:57:34.249Z,31.81
